Rosaria Lauro — IXXO — position and weather

sailwx.info

Track history (hours):
 
Tides and Currents Weather Stations Pressure Air Temp Water Temp Dewpoint Dewpoint Depression Visibility Wind Speed Wind Dir Waves Ship Positions

Rosaria Lauro

Last reported at 2015-Mar-05 10:33 UTC. Time now 2015-Mar-06 02:50 UTC.
Position N 40°45' E 013°56'.

Length 40 m; draft 1.1 m.

Type: Passenger vessel. MMSI: 247055900.

Date/timePositionNaut miles runAvg speedWind from/ knotsBaromVisibWave heightAir tempDewpointWater temp
2015-Mar-05 10:33N 40°45' E 013°56'0 0.0
2015-Mar-05 09:32N 40°45' E 013°56'0 0.0
2015-Mar-05 08:33N 40°45' E 013°56'0 0.0
2015-Mar-05 07:33N 40°45' E 013°56'1612.2
2015-Mar-05 06:14N 40°50' E 014°16'1623.5
2015-Mar-05 05:33N 40°45' E 013°56'0 0.0
2015-Mar-04 17:22N 40°45' E 013°56'1618.3
2015-Mar-04 16:29N 40°49' E 014°17'9 9.9
2015-Mar-04 15:34N 40°46' E 014°05'7 6.9
2015-Mar-04 14:33N 40°45' E 013°56'1511.5
2015-Mar-04 13:13N 40°50' E 014°15'1117.5
2015-Mar-04 12:33N 40°46' E 014°01'8 7.5
2015-Mar-04 11:33N 40°44' E 013°52'6 6.0
2015-Mar-04 10:34N 40°46' E 013°59'1411.4
2015-Mar-04 09:22N 40°50' E 014°16'1620.0
2015-Mar-04 08:34N 40°45' E 013°56'1 0.5
2015-Mar-04 07:34N 40°45' E 013°56'1612.2
2015-Mar-04 06:14N 40°49' E 014°17'1623.2
2015-Mar-04 05:32N 40°45' E 013°56'0 0.0
2015-Mar-03 18:09N 40°45' E 013°56'1016.1
2015-Mar-03 17:33N 40°47' E 014°09'5 4.7
2015-Mar-03 16:33N 40°50' E 014°13'1414.0
2015-Mar-03 15:33N 40°45' E 013°56'19 9.6
2015-Mar-03 13:33N 40°45' E 014°22'5 5.4
2015-Mar-03 12:33N 40°43' E 014°28'0 0.0
2015-Mar-03 11:33N 40°43' E 014°28'0 0.0
2015-Mar-03 10:33N 40°43' E 014°28'0 0.0
2015-Mar-03 09:33N 40°43' E 014°28'2 2.4
2015-Mar-03 08:32N 40°44' E 014°25'15 7.7
2015-Mar-03 06:34N 40°46' E 014°05'1110.5
2015-Mar-03 05:33N 40°45' E 013°51'4 0.3
2015-Mar-02 17:23N 40°45' E 013°56'1618.0
2015-Mar-02 16:30N 40°50' E 014°16'9 9.9
2015-Mar-02 15:33N 40°46' E 014°05'7 6.7
2015-Mar-02 14:33N 40°45' E 013°57'4 2.2
2015-Mar-02 12:33N 40°46' E 014°02'8 5.5
2015-Mar-02 11:05N 40°44' E 013°52'612.0
2015-Mar-02 10:34N 40°46' E 013°59'1311.7
2015-Mar-02 09:28N 40°50' E 014°15'19 1.2
2015-Mar-01 17:33N 40°44' E 013°52'1818.3
2015-Mar-01 16:34N 40°48' E 014°15'10 9.8
2015-Mar-01 15:34N 40°46' E 014°02'5 4.9
2015-Mar-01 14:34N 40°45' E 013°56'1515.3
2015-Mar-01 13:34N 40°50' E 014°15'1 0.4
2015-Mar-01 11:28N 40°50' E 014°16'1617.5
2015-Mar-01 10:34N 40°45' E 013°57'0 0.0
2015-Mar-01 09:34N 40°45' E 013°56'1615.0
2015-Mar-01 08:30N 40°50' E 014°16'1617.0
2015-Mar-01 07:33N 40°45' E 013°56'4 0.3
2015-Feb-28 17:34N 40°45' E 013°51'1818.0
2015-Feb-28 16:32N 40°48' E 014°15'8 8.6
2015-Feb-28 15:34N 40°46' E 014°05'7 6.7
2015-Feb-28 14:33N 40°45' E 013°56'16 5.2
2015-Feb-28 11:27N 40°50' E 014°17'1718.6
2015-Feb-28 10:33N 40°45' E 013°56'1 0.9
2015-Feb-28 09:34N 40°45' E 013°56'1614.2
2015-Feb-28 08:26N 40°50' E 014°16'1618.1
2015-Feb-28 07:33N 40°45' E 013°56'1612.8
2015-Feb-28 06:19N 40°50' E 014°16'1620.7
2015-Feb-28 05:33N 40°45' E 013°56'0 0.0
2015-Feb-27 20:13N 40°45' E 013°56'1621.8
2015-Feb-27 19:31N 40°49' E 014°16'7 7.0
2015-Feb-27 18:33N 40°46' E 014°08'1 1.2
2015-Feb-27 17:34N 40°47' E 014°06'6 5.3
2015-Feb-27 16:27N 40°49' E 014°13'1415.4
2015-Feb-27 15:33N 40°45' E 013°56'13 6.5
2015-Feb-27 13:33N 40°48' E 014°13'9 9.2
2015-Feb-27 12:34N 40°46' E 014°01'1210.9
2015-Feb-27 11:29N 40°50' E 014°16'0 0.0
2015-Feb-27 09:22N 40°50' E 014°16'1619.4
2015-Feb-27 08:33N 40°45' E 013°56'1 0.6
2015-Feb-27 07:34N 40°45' E 013°56'1613.0
2015-Feb-27 06:21N 40°50' E 014°16'1620.0
2015-Feb-27 05:33N 40°45' E 013°56'0 0.0
2015-Feb-26 20:08N 40°45' E 013°56'1524.7
2015-Feb-26 19:32N 40°48' E 014°16'6 6.1
2015-Feb-26 18:34N 40°46' E 014°08'2 1.6
2015-Feb-26 17:33N 40°46' E 014°06'7 6.7
2015-Feb-26 16:33N 40°49' E 014°14'1414.1
2015-Feb-26 15:33N 40°45' E 013°56'13 6.3
2015-Feb-26 13:33N 40°48' E 014°13'8 8.5
2015-Feb-26 12:34N 40°46' E 014°02'1210.4
2015-Feb-26 11:25N 40°50' E 014°16'0 0.0
2015-Feb-26 09:19N 40°50' E 014°17'1621.2
2015-Feb-26 08:34N 40°45' E 013°56'1 0.7
2015-Feb-26 07:34N 40°45' E 013°56'1612.5
2015-Feb-26 06:16N 40°50' E 014°17'1622.2
2015-Feb-26 05:33N 40°45' E 013°56'0 0.0
2015-Feb-25 12:09N 40°45' E 013°56'0 0.0
2015-Feb-25 11:34N 40°45' E 013°56'0 0.0
2015-Feb-25 10:33N 40°45' E 013°56'0 0.0
2015-Feb-25 09:33N 40°45' E 013°56'0 0.0
2015-Feb-25 08:33N 40°45' E 013°56'0 0.0
2015-Feb-25 07:33N 40°45' E 013°56'0 0.0
2015-Feb-25 06:33N 40°45' E 013°56'0 0.0
2015-Feb-25 05:34N 40°45' E 013°56'0 0.0
2015-Feb-24 15:33N 40°45' E 013°56'11 5.6
2015-Feb-24 13:33N 40°47' E 014°11'6 6.2
2015-Feb-24 12:33N 40°46' E 014°03'1110.5
2015-Feb-24 11:29N 40°50' E 014°17'0 0.0
2015-Feb-24 09:16N 40°50' E 014°17'1622.8
2015-Feb-24 08:33N 40°45' E 013°56'0 0.1
2015-Feb-24 07:33N 40°45' E 013°56'1612.1
2015-Feb-24 06:13N 40°49' E 014°17'1624.7
2015-Feb-24 05:33N 40°45' E 013°56'0 0.0
2015-Feb-24 04:33N 40°45' E 013°56'0 0.0
2015-Feb-23 20:10N 40°45' E 013°56'1423.2
2015-Feb-23 19:33N 40°48' E 014°15'5 4.9
2015-Feb-23 18:34N 40°46' E 014°09'1 1.1
2015-Feb-23 17:33N 40°46' E 014°07'6 5.4
2015-Feb-23 16:29N 40°49' E 014°14'1415.0
2015-Feb-23 15:33N 40°45' E 013°56'13 6.4
2015-Feb-23 13:34N 40°48' E 014°13'7 6.9
2015-Feb-23 12:34N 40°46' E 014°04'  
Track history (hours):
 
Tides and Currents Weather Stations Pressure Air Temp Water Temp Dewpoint Dewpoint Depression Visibility Wind Speed Wind Dir Waves Ship Positions

Rosaria Lauro

Last reported at 2015-Mar-05 10:33 UTC. Time now 2015-Mar-06 02:50 UTC.
Position N 40°45' E 013°56'.

Length 40 m; draft 1.1 m.

Type: Passenger vessel. MMSI: 247055900.

Date/timePositionNaut miles runAvg speedWind from/ knotsBaromVisibWave heightAir tempDewpointWater temp
2015-Mar-05 10:33N 40°45' E 013°56'0 0.0
2015-Mar-05 09:32N 40°45' E 013°56'0 0.0
2015-Mar-05 08:33N 40°45' E 013°56'0 0.0
2015-Mar-05 07:33N 40°45' E 013°56'1612.2
2015-Mar-05 06:14N 40°50' E 014°16'1623.5
2015-Mar-05 05:33N 40°45' E 013°56'0 0.0
2015-Mar-04 17:22N 40°45' E 013°56'1618.3
2015-Mar-04 16:29N 40°49' E 014°17'9 9.9
2015-Mar-04 15:34N 40°46' E 014°05'7 6.9
2015-Mar-04 14:33N 40°45' E 013°56'1511.5
2015-Mar-04 13:13N 40°50' E 014°15'1117.5
2015-Mar-04 12:33N 40°46' E 014°01'8 7.5
2015-Mar-04 11:33N 40°44' E 013°52'6 6.0
2015-Mar-04 10:34N 40°46' E 013°59'1411.4
2015-Mar-04 09:22N 40°50' E 014°16'1620.0
2015-Mar-04 08:34N 40°45' E 013°56'1 0.5
2015-Mar-04 07:34N 40°45' E 013°56'1612.2
2015-Mar-04 06:14N 40°49' E 014°17'1623.2
2015-Mar-04 05:32N 40°45' E 013°56'0 0.0
2015-Mar-03 18:09N 40°45' E 013°56'1016.1
2015-Mar-03 17:33N 40°47' E 014°09'5 4.7
2015-Mar-03 16:33N 40°50' E 014°13'1414.0
2015-Mar-03 15:33N 40°45' E 013°56'19 9.6
2015-Mar-03 13:33N 40°45' E 014°22'5 5.4
2015-Mar-03 12:33N 40°43' E 014°28'0 0.0
2015-Mar-03 11:33N 40°43' E 014°28'0 0.0
2015-Mar-03 10:33N 40°43' E 014°28'0 0.0
2015-Mar-03 09:33N 40°43' E 014°28'2 2.4
2015-Mar-03 08:32N 40°44' E 014°25'15 7.7
2015-Mar-03 06:34N 40°46' E 014°05'1110.5
2015-Mar-03 05:33N 40°45' E 013°51'4 0.3
2015-Mar-02 17:23N 40°45' E 013°56'1618.0
2015-Mar-02 16:30N 40°50' E 014°16'9 9.9
2015-Mar-02 15:33N 40°46' E 014°05'7 6.7
2015-Mar-02 14:33N 40°45' E 013°57'4 2.2
2015-Mar-02 12:33N 40°46' E 014°02'8 5.5
2015-Mar-02 11:05N 40°44' E 013°52'612.0
2015-Mar-02 10:34N 40°46' E 013°59'1311.7
2015-Mar-02 09:28N 40°50' E 014°15'19 1.2
2015-Mar-01 17:33N 40°44' E 013°52'1818.3
2015-Mar-01 16:34N 40°48' E 014°15'10 9.8
2015-Mar-01 15:34N 40°46' E 014°02'5 4.9
2015-Mar-01 14:34N 40°45' E 013°56'1515.3
2015-Mar-01 13:34N 40°50' E 014°15'1 0.4
2015-Mar-01 11:28N 40°50' E 014°16'1617.5
2015-Mar-01 10:34N 40°45' E 013°57'0 0.0
2015-Mar-01 09:34N 40°45' E 013°56'1615.0
2015-Mar-01 08:30N 40°50' E 014°16'1617.0
2015-Mar-01 07:33N 40°45' E 013°56'4 0.3
2015-Feb-28 17:34N 40°45' E 013°51'1818.0
2015-Feb-28 16:32N 40°48' E 014°15'8 8.6
2015-Feb-28 15:34N 40°46' E 014°05'7 6.7
2015-Feb-28 14:33N 40°45' E 013°56'16 5.2
2015-Feb-28 11:27N 40°50' E 014°17'1718.6
2015-Feb-28 10:33N 40°45' E 013°56'1 0.9
2015-Feb-28 09:34N 40°45' E 013°56'1614.2
2015-Feb-28 08:26N 40°50' E 014°16'1618.1
2015-Feb-28 07:33N 40°45' E 013°56'1612.8
2015-Feb-28 06:19N 40°50' E 014°16'1620.7
2015-Feb-28 05:33N 40°45' E 013°56'0 0.0
2015-Feb-27 20:13N 40°45' E 013°56'1621.8
2015-Feb-27 19:31N 40°49' E 014°16'7 7.0
2015-Feb-27 18:33N 40°46' E 014°08'1 1.2
2015-Feb-27 17:34N 40°47' E 014°06'6 5.3
2015-Feb-27 16:27N 40°49' E 014°13'1415.4
2015-Feb-27 15:33N 40°45' E 013°56'13 6.5
2015-Feb-27 13:33N 40°48' E 014°13'9 9.2
2015-Feb-27 12:34N 40°46' E 014°01'1210.9
2015-Feb-27 11:29N 40°50' E 014°16'0 0.0
2015-Feb-27 09:22N 40°50' E 014°16'1619.4
2015-Feb-27 08:33N 40°45' E 013°56'1 0.6
2015-Feb-27 07:34N 40°45' E 013°56'1613.0
2015-Feb-27 06:21N 40°50' E 014°16'1620.0
2015-Feb-27 05:33N 40°45' E 013°56'0 0.0
2015-Feb-26 20:08N 40°45' E 013°56'1524.7
2015-Feb-26 19:32N 40°48' E 014°16'6 6.1
2015-Feb-26 18:34N 40°46' E 014°08'2 1.6
2015-Feb-26 17:33N 40°46' E 014°06'7 6.7
2015-Feb-26 16:33N 40°49' E 014°14'1414.1
2015-Feb-26 15:33N 40°45' E 013°56'13 6.3
2015-Feb-26 13:33N 40°48' E 014°13'8 8.5
2015-Feb-26 12:34N 40°46' E 014°02'1210.4
2015-Feb-26 11:25N 40°50' E 014°16'0 0.0
2015-Feb-26 09:19N 40°50' E 014°17'1621.2
2015-Feb-26 08:34N 40°45' E 013°56'1 0.7
2015-Feb-26 07:34N 40°45' E 013°56'1612.5
2015-Feb-26 06:16N 40°50' E 014°17'1622.2
2015-Feb-26 05:33N 40°45' E 013°56'0 0.0
2015-Feb-25 12:09N 40°45' E 013°56'0 0.0
2015-Feb-25 11:34N 40°45' E 013°56'0 0.0
2015-Feb-25 10:33N 40°45' E 013°56'0 0.0
2015-Feb-25 09:33N 40°45' E 013°56'0 0.0
2015-Feb-25 08:33N 40°45' E 013°56'0 0.0
2015-Feb-25 07:33N 40°45' E 013°56'0 0.0
2015-Feb-25 06:33N 40°45' E 013°56'0 0.0
2015-Feb-25 05:34N 40°45' E 013°56'0 0.0
2015-Feb-24 15:33N 40°45' E 013°56'11 5.6
2015-Feb-24 13:33N 40°47' E 014°11'6 6.2
2015-Feb-24 12:33N 40°46' E 014°03'1110.5
2015-Feb-24 11:29N 40°50' E 014°17'0 0.0
2015-Feb-24 09:16N 40°50' E 014°17'1622.8
2015-Feb-24 08:33N 40°45' E 013°56'0 0.1
2015-Feb-24 07:33N 40°45' E 013°56'1612.1
2015-Feb-24 06:13N 40°49' E 014°17'1624.7
2015-Feb-24 05:33N 40°45' E 013°56'0 0.0
2015-Feb-24 04:33N 40°45' E 013°56'0 0.0
2015-Feb-23 20:10N 40°45' E 013°56'1423.2
2015-Feb-23 19:33N 40°48' E 014°15'5 4.9
2015-Feb-23 18:34N 40°46' E 014°09'1 1.1
2015-Feb-23 17:33N 40°46' E 014°07'6 5.4
2015-Feb-23 16:29N 40°49' E 014°14'1415.0
2015-Feb-23 15:33N 40°45' E 013°56'13 6.4
2015-Feb-23 13:34N 40°48' E 014°13'7 6.9
2015-Feb-23 12:34N 40°46' E 014°04'  

Dump ship's entire track history